createdAt,value
2019-01-23T00:02:18.103Z,79.33
2019-01-23T00:04:46.486Z,70.23
2019-01-23T00:07:14.935Z,79.30
2019-01-23T00:09:43.298Z,81.23
2019-01-23T00:12:11.640Z,75.47
2019-01-23T00:14:40.081Z,71.87
2019-01-23T00:17:08.471Z,87.80
2019-01-23T00:19:36.845Z,86.27
2019-01-23T00:22:05.271Z,82.10
2019-01-23T00:24:33.644Z,89.03
2019-01-23T00:27:02.170Z,79.13
2019-01-23T00:29:30.582Z,82.87
2019-01-23T00:31:58.958Z,91.03
2019-01-23T00:34:27.271Z,85.13
2019-01-23T00:36:55.636Z,85.17
2019-01-23T00:39:24.103Z,81.57
2019-01-23T00:41:52.404Z,82.90
2019-01-23T00:44:20.843Z,79.97
2019-01-23T00:46:49.283Z,83.63
2019-01-23T00:49:17.689Z,79.37
2019-01-23T00:51:46.000Z,81.57
2019-01-23T00:54:14.650Z,83.70
2019-01-23T00:56:43.012Z,85.50
2019-01-23T00:59:11.405Z,81.60
2019-01-23T01:01:39.781Z,91.50
2019-01-23T01:04:08.087Z,81.90
2019-01-23T01:06:36.618Z,84.00
2019-01-23T01:09:07.808Z,87.07
2019-01-23T01:11:36.164Z,89.63
2019-01-23T01:14:04.650Z,93.17
2019-01-23T01:16:33.029Z,88.53
2019-01-23T01:19:01.472Z,86.87
2019-01-23T01:21:29.908Z,84.00
2019-01-23T01:23:58.290Z,88.77
2019-01-23T01:26:26.670Z,85.87
2019-01-23T01:28:56.139Z,82.53
2019-01-23T01:31:24.789Z,82.90
2019-01-23T01:33:53.100Z,83.90
2019-01-23T01:36:22.781Z,81.40
2019-01-23T01:38:51.367Z,81.83
2019-01-23T01:41:19.795Z,78.87
2019-01-23T01:43:48.166Z,85.00
2019-01-23T01:46:16.656Z,83.50
2019-01-23T01:48:45.114Z,87.47
2019-01-23T01:51:13.493Z,78.67
2019-01-23T01:53:41.892Z,82.10
2019-01-23T01:56:10.282Z,77.23
2019-01-23T01:58:38.666Z,84.10
2019-01-23T02:01:06.992Z,78.50
2019-01-23T02:03:35.353Z,77.97
2019-01-23T02:06:03.842Z,85.30
2019-01-23T02:08:32.253Z,87.10
2019-01-23T02:11:00.715Z,91.50
2019-01-23T02:13:29.083Z,87.67
2019-01-23T02:15:57.536Z,81.27
2019-01-23T02:18:25.831Z,76.43
2019-01-23T02:20:54.219Z,82.47
2019-01-23T02:23:22.585Z,80.67
2019-01-23T02:25:51.053Z,80.30
2019-01-23T02:28:19.416Z,77.50
2019-01-23T02:30:47.884Z,85.87
2019-01-23T02:33:16.430Z,88.60
2019-01-23T02:35:44.814Z,89.43
2019-01-23T02:38:13.177Z,79.37
2019-01-23T02:40:41.566Z,79.80
2019-01-23T02:43:09.957Z,77.47
2019-01-23T02:45:38.280Z,80.90
2019-01-23T02:48:06.774Z,82.80
2019-01-23T02:50:35.143Z,78.37
2019-01-23T02:53:03.532Z,78.40
2019-01-23T02:55:32.055Z,85.03
2019-01-23T02:58:00.436Z,82.00
2019-01-23T03:00:28.752Z,82.87
2019-01-23T03:02:57.215Z,79.07
2019-01-23T03:05:25.622Z,80.03
2019-01-23T03:07:54.086Z,85.67
2019-01-23T03:10:22.534Z,84.93
2019-01-23T03:12:50.908Z,78.37
2019-01-23T03:15:19.285Z,76.77
2019-01-23T03:17:47.620Z,81.13
2019-01-23T03:20:17.532Z,78.00
2019-01-23T03:22:46.015Z,79.93
2019-01-23T03:25:15.008Z,80.23
2019-01-23T03:27:43.420Z,72.87
2019-01-23T03:30:15.431Z,77.00
2019-01-23T03:32:43.860Z,81.00
2019-01-23T03:35:12.229Z,78.63
2019-01-23T03:37:40.625Z,87.73
2019-01-23T03:40:14.563Z,80.73
2019-01-23T03:42:42.983Z,82.53
2019-01-23T03:45:13.364Z,81.83
2019-01-23T03:47:41.740Z,84.80
2019-01-23T03:50:12.491Z,86.07
2019-01-23T03:52:40.997Z,81.20
2019-01-23T03:55:10.594Z,88.40
2019-01-23T03:57:38.942Z,77.73
2019-01-23T04:00:10.596Z,90.10
2019-01-23T04:02:39.172Z,83.13
2019-01-23T04:05:09.426Z,85.80
2019-01-23T04:07:37.781Z,82.77
2019-01-23T04:10:09.438Z,83.93
2019-01-23T04:12:37.942Z,83.37
2019-01-23T04:15:08.882Z,81.23
2019-01-23T04:17:37.210Z,81.93
2019-01-23T04:20:08.879Z,92.43
2019-01-23T04:22:37.256Z,82.73
2019-01-23T04:25:07.945Z,81.70
2019-01-23T04:27:36.324Z,89.23
2019-01-23T04:30:13.832Z,82.20
2019-01-23T04:32:42.224Z,83.83
2019-01-23T04:35:10.603Z,78.23
2019-01-23T04:37:38.968Z,81.80
2019-01-23T04:40:09.898Z,85.57
2019-01-23T04:42:38.265Z,80.93
2019-01-23T04:45:09.364Z,87.47
2019-01-23T04:47:37.809Z,82.63
2019-01-23T04:50:09.129Z,81.93
2019-01-23T04:52:39.159Z,81.03
2019-01-23T04:55:08.122Z,79.40
2019-01-23T04:57:36.490Z,78.13
2019-01-23T05:00:08.334Z,83.33
2019-01-23T05:02:36.730Z,92.37
2019-01-23T05:05:07.483Z,86.77
2019-01-23T05:07:35.932Z,85.57
2019-01-23T05:10:06.058Z,90.13
2019-01-23T05:12:34.494Z,82.87
2019-01-23T05:15:02.898Z,86.53
2019-01-23T05:17:31.262Z,79.80
2019-01-23T05:19:59.890Z,83.03
2019-01-23T05:22:28.238Z,91.50
2019-01-23T05:24:56.763Z,86.33
2019-01-23T05:27:26.454Z,82.90
2019-01-23T05:29:55.260Z,87.10
2019-01-23T05:32:23.680Z,87.13
2019-01-23T05:34:52.071Z,86.37
2019-01-23T05:37:20.506Z,88.83
2019-01-23T05:39:48.914Z,95.80
2019-01-23T05:42:17.274Z,94.90
2019-01-23T05:44:45.673Z,92.13
2019-01-23T05:47:14.131Z,90.47
2019-01-23T05:49:42.542Z,96.30
2019-01-23T05:52:11.155Z,95.63
2019-01-23T05:54:39.617Z,91.93
2019-01-23T05:57:08.057Z,94.00
2019-01-23T05:59:36.491Z,95.20
2019-01-23T06:02:05.139Z,99.37
2019-01-23T06:04:33.674Z,97.03
2019-01-23T06:07:02.071Z,100.17
2019-01-23T06:09:30.522Z,100.03
2019-01-23T06:11:59.437Z,97.37
2019-01-23T06:14:27.749Z,93.73
2019-01-23T06:16:56.210Z,90.40
2019-01-23T06:19:24.542Z,94.03
2019-01-23T06:21:53.098Z,98.37
2019-01-23T06:24:21.506Z,94.80
2019-01-23T06:26:49.901Z,97.53
2019-01-23T06:29:18.460Z,93.30
2019-01-23T06:31:46.864Z,93.47
2019-01-23T06:34:15.311Z,93.33
2019-01-23T06:36:43.774Z,97.77
2019-01-23T06:39:12.276Z,97.10
2019-01-23T06:41:40.739Z,97.73
2019-01-23T06:44:09.150Z,100.13
2019-01-23T06:46:37.645Z,96.40
2019-01-23T06:49:06.037Z,114.17
2019-01-23T06:51:34.336Z,106.23
2019-01-23T06:54:02.918Z,111.40
2019-01-23T06:56:31.293Z,110.10
2019-01-23T06:58:59.703Z,133.53
2019-01-23T07:01:28.106Z,113.60
2019-01-23T07:03:56.666Z,116.90
2019-01-23T07:06:25.197Z,131.70
2019-01-23T07:08:55.095Z,126.00
2019-01-23T07:11:23.548Z,126.10
2019-01-23T07:13:51.888Z,131.37
2019-01-23T07:16:20.262Z,113.17
2019-01-23T07:18:48.694Z,135.87
2019-01-23T07:21:17.100Z,138.80
2019-01-23T07:23:45.480Z,123.00
2019-01-23T07:26:13.862Z,135.10
2019-01-23T07:28:42.233Z,127.03
2019-01-23T07:31:10.638Z,125.27
2019-01-23T07:33:39.026Z,128.63
2019-01-23T07:36:07.442Z,123.63
2019-01-23T07:38:35.881Z,138.97
2019-01-23T07:41:04.292Z,128.30
2019-01-23T07:43:32.661Z,132.80
2019-01-23T07:46:01.107Z,134.77
2019-01-23T07:48:29.455Z,139.57
2019-01-23T07:50:57.963Z,123.97
2019-01-23T07:53:26.293Z,129.77
2019-01-23T07:55:54.842Z,134.50
2019-01-23T07:58:23.237Z,137.33
2019-01-23T08:00:51.675Z,131.00
2019-01-23T08:03:21.788Z,133.57
2019-01-23T08:05:50.910Z,127.57
2019-01-23T08:08:19.341Z,126.87
2019-01-23T08:10:47.839Z,127.77
2019-01-23T08:13:16.297Z,123.70
2019-01-23T08:15:44.981Z,117.73
2019-01-23T08:18:13.441Z,120.07
2019-01-23T08:20:41.920Z,125.00
2019-01-23T08:23:10.258Z,117.43
2019-01-23T08:25:38.784Z,107.80
2019-01-23T08:28:07.155Z,104.17
2019-01-23T08:30:39.308Z,109.83
2019-01-23T08:33:05.592Z,109.77
2019-01-23T08:35:34.151Z,120.73
2019-01-23T08:38:02.599Z,131.30
2019-01-23T08:40:30.986Z,117.63
2019-01-23T08:42:59.461Z,124.83
2019-01-23T08:45:27.848Z,120.13
2019-01-23T08:47:56.407Z,124.83
2019-01-23T08:50:30.851Z,134.50
2019-01-23T08:52:59.244Z,134.27
2019-01-23T08:55:27.721Z,138.50
2019-01-23T08:57:56.214Z,139.80
2019-01-23T09:00:24.632Z,137.90
2019-01-23T09:02:52.971Z,121.03
2019-01-23T09:05:21.361Z,133.73
2019-01-23T09:07:49.964Z,133.17
2019-01-23T09:10:26.081Z,126.67
2019-01-23T09:12:54.514Z,131.83
2019-01-23T09:15:22.911Z,124.57
2019-01-23T09:17:51.323Z,121.87
2019-01-23T09:20:22.970Z,125.63
2019-01-23T09:22:51.331Z,114.20
2019-01-23T09:25:24.702Z,124.57
2019-01-23T09:27:53.094Z,117.73
2019-01-23T09:30:30.837Z,116.13
2019-01-23T09:33:20.537Z,111.33
2019-01-23T09:36:13.039Z,114.87
2019-01-23T09:39:08.897Z,114.07
2019-01-23T09:41:52.676Z,115.13
2019-01-23T09:44:24.387Z,128.03
2019-01-23T09:47:19.521Z,122.50
2019-01-23T09:50:06.105Z,119.53
2019-01-23T09:52:49.741Z,134.53
2019-01-23T09:55:18.126Z,124.10
2019-01-23T09:57:46.887Z,130.90
2019-01-23T10:00:23.981Z,140.10
2019-01-23T10:02:52.395Z,122.80
2019-01-23T10:05:20.858Z,126.03
2019-01-23T10:07:49.422Z,128.57
2019-01-23T10:10:20.393Z,129.10
2019-01-23T10:12:48.787Z,122.27
2019-01-23T10:15:26.192Z,120.93
2019-01-23T10:17:54.978Z,117.00
2019-01-23T10:20:23.442Z,122.33
2019-01-23T10:22:52.057Z,115.67
2019-01-23T10:25:20.437Z,113.53
2019-01-23T10:27:48.907Z,113.00
2019-01-23T10:30:17.385Z,118.83
2019-01-23T10:32:46.003Z,113.50
2019-01-23T10:35:17.463Z,112.97
2019-01-23T10:38:05.380Z,114.50
2019-01-23T10:40:33.870Z,107.17
2019-01-23T10:43:02.270Z,114.97
2019-01-23T10:45:30.666Z,118.67
2019-01-23T10:47:59.344Z,109.83
2019-01-23T10:50:27.806Z,109.60
2019-01-23T10:52:56.186Z,112.03
2019-01-23T10:55:24.701Z,114.07
2019-01-23T10:57:53.281Z,107.00
2019-01-23T11:00:23.204Z,114.83
2019-01-23T11:02:51.696Z,109.17
2019-01-23T11:05:22.099Z,99.23
2019-01-23T11:07:50.528Z,102.97
2019-01-23T11:10:21.631Z,112.43
2019-01-23T11:12:50.025Z,108.07
2019-01-23T11:15:18.333Z,105.80
2019-01-23T11:17:46.670Z,104.80
2019-01-23T11:20:17.383Z,98.70
2019-01-23T11:22:45.905Z,102.07
2019-01-23T11:25:15.424Z,99.57
2019-01-23T11:27:54.845Z,102.43
2019-01-23T11:30:25.383Z,99.43
2019-01-23T11:32:54.232Z,96.20
2019-01-23T11:35:22.587Z,104.43
2019-01-23T11:37:51.041Z,92.67
2019-01-23T11:40:22.311Z,104.00
2019-01-23T11:42:50.802Z,97.13
2019-01-23T11:45:19.242Z,93.60
2019-01-23T11:47:48.032Z,92.27
2019-01-23T11:50:21.980Z,100.23
2019-01-23T11:52:51.411Z,107.47
2019-01-23T11:55:21.490Z,96.17
2019-01-23T11:57:49.953Z,104.60
2019-01-23T12:00:24.118Z,100.50
2019-01-23T12:02:55.913Z,100.07
2019-01-23T12:05:24.282Z,91.63
2019-01-23T12:07:52.678Z,93.80
2019-01-23T12:10:24.770Z,87.57
2019-01-23T12:12:53.189Z,99.07
2019-01-23T12:15:23.551Z,85.77
2019-01-23T12:17:52.340Z,90.17
2019-01-23T12:20:20.868Z,94.00
2019-01-23T12:22:49.332Z,85.30
2019-01-23T12:25:17.706Z,85.53
2019-01-23T12:27:46.145Z,88.77
2019-01-23T12:30:20.647Z,87.47
2019-01-23T12:32:49.211Z,84.87
2019-01-23T12:35:17.555Z,93.20
2019-01-23T12:37:45.898Z,97.50
2019-01-23T12:40:15.992Z,83.53
2019-01-23T12:42:44.432Z,91.50
2019-01-23T12:45:18.866Z,85.87
2019-01-23T12:47:47.299Z,84.13
2019-01-23T12:50:18.770Z,86.40
2019-01-23T12:52:47.423Z,80.00
2019-01-23T12:55:15.810Z,72.33
2019-01-23T12:57:44.219Z,83.80
2019-01-23T13:00:19.416Z,78.00
2019-01-23T13:02:47.808Z,77.73
2019-01-23T13:05:18.297Z,79.70
2019-01-23T13:07:46.755Z,80.93
2019-01-23T13:10:17.930Z,76.47
2019-01-23T13:12:46.363Z,71.50
2019-01-23T13:15:17.981Z,83.67
2019-01-23T13:17:46.469Z,79.07
2019-01-23T13:20:16.830Z,78.00
2019-01-23T13:22:45.276Z,77.40
2019-01-23T13:25:15.929Z,77.77
2019-01-23T13:27:44.418Z,85.93
2019-01-23T13:30:15.582Z,83.73
2019-01-23T13:32:43.966Z,76.27
2019-01-23T13:35:15.103Z,81.67
2019-01-23T13:37:43.506Z,72.37
2019-01-23T13:40:20.928Z,85.43
2019-01-23T13:42:49.304Z,68.77
2019-01-23T13:45:17.712Z,81.30
2019-01-23T13:47:46.697Z,71.40
2019-01-23T13:50:15.223Z,77.67
2019-01-23T13:52:43.847Z,74.43
2019-01-23T13:55:15.446Z,70.73
2019-01-23T13:57:43.938Z,68.93
2019-01-23T14:00:18.653Z,72.93
2019-01-23T14:02:47.118Z,70.40
2019-01-23T14:05:15.529Z,76.10
2019-01-23T14:07:44.061Z,70.73
2019-01-23T14:10:17.041Z,66.07
2019-01-23T14:12:45.444Z,71.03
2019-01-23T14:15:17.218Z,74.40
2019-01-23T14:17:45.608Z,64.47
2019-01-23T14:20:15.955Z,66.17
2019-01-23T14:22:44.379Z,66.80
2019-01-23T14:25:15.411Z,66.93
2019-01-23T14:27:43.798Z,65.97
2019-01-23T14:30:18.154Z,65.03
2019-01-23T14:32:46.585Z,64.47
2019-01-23T14:35:15.032Z,72.63
2019-01-23T14:37:43.420Z,64.77
2019-01-23T14:40:12.019Z,70.90
2019-01-23T14:42:40.570Z,73.93
2019-01-23T14:45:12.602Z,71.60
2019-01-23T14:47:41.282Z,66.43
2019-01-23T14:50:15.553Z,69.53
2019-01-23T14:52:44.887Z,71.57
2019-01-23T14:55:13.355Z,68.33
2019-01-23T14:57:41.986Z,67.90
2019-01-23T15:00:19.305Z,66.20
2019-01-23T15:02:47.794Z,66.40
2019-01-23T15:05:16.694Z,68.53
2019-01-23T15:07:45.092Z,60.53
2019-01-23T15:10:21.645Z,68.13
2019-01-23T15:12:50.031Z,62.43
2019-01-23T15:15:18.805Z,63.90
2019-01-23T15:17:47.436Z,61.17
2019-01-23T15:20:21.438Z,60.80
2019-01-23T15:22:50.261Z,70.17
2019-01-23T15:25:18.794Z,64.17
2019-01-23T15:27:47.198Z,64.97
2019-01-23T15:30:21.066Z,61.60
2019-01-23T15:32:49.469Z,59.07
2019-01-23T15:35:18.967Z,65.80
2019-01-23T15:37:47.367Z,58.60
2019-01-23T15:40:21.215Z,61.53
2019-01-23T15:42:49.610Z,60.07
2019-01-23T15:45:17.975Z,57.57
2019-01-23T15:47:47.320Z,61.63
2019-01-23T15:50:18.506Z,62.53
2019-01-23T15:52:47.031Z,57.70
2019-01-23T15:55:17.454Z,57.53
2019-01-23T15:57:45.991Z,58.50
2019-01-23T16:00:23.254Z,53.53
2019-01-23T16:02:51.727Z,59.20
2019-01-23T16:05:20.122Z,57.03
2019-01-23T16:07:48.507Z,56.07
2019-01-23T16:10:22.048Z,55.00
2019-01-23T16:12:50.426Z,51.87
2019-01-23T16:15:21.079Z,53.27
2019-01-23T16:17:49.511Z,56.67
2019-01-23T16:20:17.913Z,57.43
2019-01-23T16:22:46.601Z,55.80
2019-01-23T16:25:16.630Z,49.63
2019-01-23T16:27:45.659Z,53.13
2019-01-23T16:30:22.512Z,54.87
2019-01-23T16:32:50.874Z,56.33
2019-01-23T16:35:19.268Z,54.20
2019-01-23T16:37:47.719Z,54.37
2019-01-23T16:40:16.131Z,51.70
2019-01-23T16:42:44.529Z,55.53
2019-01-23T16:45:16.175Z,64.13
2019-01-23T16:47:45.687Z,62.07
2019-01-23T16:50:16.945Z,53.47
2019-01-23T16:52:45.534Z,59.87
2019-01-23T16:55:13.955Z,55.33
2019-01-23T16:57:42.577Z,52.07
2019-01-23T17:00:14.323Z,52.80
2019-01-23T17:02:42.762Z,59.43
2019-01-23T17:05:14.636Z,58.57
2019-01-23T17:07:43.114Z,55.67
2019-01-23T17:10:14.841Z,59.00
2019-01-23T17:12:43.299Z,61.27
2019-01-23T17:15:12.029Z,52.60
2019-01-23T17:17:40.421Z,58.57
2019-01-23T17:20:20.673Z,62.50
2019-01-23T17:22:49.129Z,61.87
2019-01-23T17:25:17.580Z,62.70
2019-01-23T17:27:46.057Z,62.27
2019-01-23T17:30:19.485Z,62.67
2019-01-23T17:32:47.909Z,66.33
2019-01-23T17:35:18.465Z,64.83
2019-01-23T17:37:46.898Z,67.53
2019-01-23T17:40:18.093Z,72.23
2019-01-23T17:42:46.642Z,66.13
2019-01-23T17:45:36.242Z,68.90
2019-01-23T17:48:06.743Z,63.33
2019-01-23T17:50:35.289Z,69.23
2019-01-23T17:53:03.705Z,66.63
2019-01-23T17:55:35.006Z,69.53
2019-01-23T17:58:03.581Z,75.03
2019-01-23T18:00:33.632Z,70.67
2019-01-23T18:03:02.028Z,75.17
2019-01-23T18:05:30.417Z,70.50
2019-01-23T18:07:58.796Z,78.83
2019-01-23T18:10:27.212Z,76.90
2019-01-23T18:12:55.726Z,83.60
2019-01-23T18:15:29.860Z,81.77
2019-01-23T18:17:58.297Z,84.47
2019-01-23T18:20:28.687Z,77.83
2019-01-23T18:22:57.238Z,81.27
2019-01-23T18:25:25.889Z,87.60
2019-01-23T18:27:54.285Z,87.13
2019-01-23T18:30:32.203Z,85.07
2019-01-23T18:33:01.862Z,93.47
2019-01-23T18:35:55.212Z,90.30
2019-01-23T18:38:29.835Z,94.70
2019-01-23T18:41:04.238Z,84.03
2019-01-23T18:43:47.980Z,92.90
2019-01-23T18:46:46.793Z,90.20
2019-01-23T18:49:35.094Z,87.60
2019-01-23T18:52:11.836Z,86.47
2019-01-23T18:54:41.146Z,77.10
2019-01-23T18:57:18.419Z,95.07
2019-01-23T18:59:46.785Z,95.23
2019-01-23T19:02:15.180Z,90.60
2019-01-23T19:04:43.719Z,76.43
2019-01-23T19:07:12.230Z,81.17
2019-01-23T19:09:41.048Z,89.37
2019-01-23T19:12:09.618Z,84.13
2019-01-23T19:14:38.080Z,77.47
2019-01-23T19:17:06.667Z,78.10
2019-01-23T19:19:35.218Z,80.60
2019-01-23T19:22:03.788Z,86.43
2019-01-23T19:24:47.754Z,92.67
2019-01-23T19:27:23.708Z,86.90
2019-01-23T19:29:53.748Z,86.80
2019-01-23T19:32:22.320Z,87.60
2019-01-23T19:34:50.942Z,78.03
2019-01-23T19:37:19.692Z,90.30
2019-01-23T19:39:50.763Z,87.33
2019-01-23T19:42:19.334Z,94.33
2019-01-23T19:44:47.901Z,86.23
2019-01-23T19:47:16.759Z,93.17
2019-01-23T19:52:35.092Z,87.60
2019-01-23T19:55:05.103Z,83.03
2019-01-23T19:57:33.974Z,87.17
2019-01-23T20:00:06.134Z,83.33
2019-01-23T20:02:36.659Z,87.87
2019-01-23T20:05:09.495Z,83.83
2019-01-23T20:07:39.972Z,85.13
2019-01-23T20:10:14.384Z,83.73
2019-01-23T20:12:43.552Z,85.90
2019-01-23T20:15:15.099Z,88.73
2019-01-23T20:17:44.015Z,85.30
2019-01-23T20:20:16.533Z,82.87
2019-01-23T20:22:45.558Z,82.73
2019-01-23T20:25:19.589Z,82.40
2019-01-23T20:27:48.915Z,80.27
2019-01-23T20:30:30.037Z,80.43
2019-01-23T20:32:58.743Z,87.17
2019-01-23T20:35:28.377Z,84.27
2019-01-23T20:38:00.165Z,87.47
2019-01-23T20:40:30.696Z,86.87
2019-01-23T20:42:59.974Z,83.57
2019-01-23T20:45:29.311Z,81.50
2019-01-23T20:48:02.387Z,79.70
2019-01-23T20:50:32.772Z,79.00
2019-01-23T20:53:03.860Z,77.50
2019-01-23T20:55:35.046Z,73.47
2019-01-23T21:00:33.990Z,85.40
2019-01-23T21:03:03.036Z,82.83
2019-01-23T21:05:31.541Z,82.57
2019-01-23T21:08:02.242Z,81.43
2019-01-23T21:10:32.162Z,72.10
2019-01-23T21:13:01.970Z,76.30
2019-01-23T21:15:31.694Z,76.17
2019-01-23T21:18:00.061Z,81.87
2019-01-23T21:20:30.805Z,82.20
2019-01-23T21:22:59.398Z,77.93
2019-01-23T21:25:27.938Z,80.07
2019-01-23T21:27:56.368Z,74.00
2019-01-23T21:30:26.590Z,78.90
2019-01-23T21:32:55.525Z,78.67
2019-01-23T21:35:24.040Z,74.10
2019-01-23T21:37:53.753Z,76.87
2019-01-23T21:40:24.713Z,73.60
2019-01-23T21:42:53.549Z,69.60
2019-01-23T21:45:21.923Z,76.90
2019-01-23T21:47:51.548Z,73.40
2019-01-23T21:50:22.014Z,76.13
2019-01-23T21:52:50.517Z,71.13
2019-01-23T21:55:22.282Z,76.87
2019-01-23T21:57:51.340Z,72.97
2019-01-23T22:00:25.373Z,75.90
2019-01-23T22:02:54.940Z,64.23
2019-01-23T22:05:23.493Z,73.60
2019-01-23T22:07:51.904Z,74.03
2019-01-23T22:10:21.439Z,77.23
2019-01-23T22:12:49.806Z,74.10
2019-01-23T22:15:26.918Z,80.80
2019-01-23T22:17:55.378Z,74.93
2019-01-23T22:20:24.299Z,72.57
2019-01-23T22:22:52.862Z,78.57
2019-01-23T22:25:23.548Z,75.53
2019-01-23T22:27:52.418Z,78.37
2019-01-23T22:30:28.830Z,74.17
2019-01-23T22:33:02.725Z,69.43
2019-01-23T22:35:33.346Z,71.97
2019-01-23T22:38:06.133Z,74.77
2019-01-23T22:40:36.827Z,75.07
2019-01-23T22:43:05.324Z,75.23
2019-01-23T22:45:33.852Z,69.47
2019-01-23T22:48:03.323Z,71.43
2019-01-23T22:50:31.774Z,70.43
2019-01-23T22:53:00.364Z,76.27
2019-01-23T22:55:28.978Z,76.83
2019-01-23T22:58:00.265Z,74.40
2019-01-23T23:01:01.691Z,74.50
2019-01-23T23:03:34.444Z,78.03
2019-01-23T23:06:03.682Z,73.33
2019-01-23T23:08:32.312Z,72.53
2019-01-23T23:11:00.800Z,71.30
2019-01-23T23:13:29.362Z,76.83
2019-01-23T23:16:00.529Z,69.70
2019-01-23T23:18:29.469Z,77.10
2019-01-23T23:20:58.237Z,76.33
2019-01-23T23:23:33.187Z,72.37
2019-01-23T23:28:53.887Z,71.20
2019-01-23T23:31:49.943Z,74.10
2019-01-23T23:34:20.206Z,68.60
2019-01-23T23:36:49.429Z,72.17
2019-01-23T23:39:17.798Z,71.57
2019-01-23T23:41:46.208Z,72.27
2019-01-23T23:44:19.366Z,77.43
2019-01-23T23:46:47.893Z,74.33
2019-01-23T23:49:16.223Z,73.10
2019-01-23T23:51:47.042Z,76.03
2019-01-23T23:54:15.476Z,74.37
2019-01-23T23:56:43.996Z,73.90
2019-01-23T23:59:12.512Z,75.77
